Time;durP1;ratioP1;P1;durP2;ratioP2;P2;SDS_P1;SDS_P2;PMS_P1;PMS_P2;Temp;Humidity;BMP_temperature;BMP_pressure;BME280_temperature;BME280_humidity;BME280_pressure;Samples;Min_cycle;Max_cycle;Signal;HPM_P1;HPM_P2
2021/12/06 00:01:50;;;;;;;21.88;15.90;;;14.10;59.60;;;;;;4226470;28;20159;-60
2021/12/06 00:04:15;;;;;;;21.90;16.85;;;14.10;59.90;;;;;;4225702;27;20066;-60
2021/12/06 00:06:39;;;;;;;22.55;16.58;;;14.10;60.10;;;;;;4222981;28;20819;-60
2021/12/06 00:09:03;;;;;;;25.02;17.88;;;14.10;59.90;;;;;;4209199;28;20079;-60
2021/12/06 00:11:25;;;;;;;22.55;17.13;;;14.10;61.90;;;;;;4209115;28;20051;-60
2021/12/06 00:13:49;;;;;;;24.48;18.38;;;14.10;62.60;;;;;;4209197;28;20138;-60
2021/12/06 00:16:18;;;;;;;23.90;16.50;;;14.10;62.50;;;;;;4209250;28;20048;-60
2021/12/06 00:18:40;;;;;;;23.48;17.00;;;14.10;63.50;;;;;;4208853;28;20105;-60
2021/12/06 00:21:03;;;;;;;20.65;16.50;;;14.10;64.00;;;;;;4215380;28;20104;-60
2021/12/06 00:23:27;;;;;;;22.35;16.15;;;14.10;62.90;;;;;;4219833;28;20055;-60
2021/12/06 00:25:49;;;;;;;24.23;16.88;;;14.00;61.90;;;;;;4209132;28;20055;-61
2021/12/06 00:28:11;;;;;;;23.58;17.13;;;14.00;61.80;;;;;;4208855;28;20052;-60
2021/12/06 00:30:33;;;;;;;23.58;17.33;;;14.00;60.90;;;;;;4209018;28;20450;-59
2021/12/06 00:32:58;;;;;;;23.40;17.00;;;14.00;61.40;;;;;;4215505;28;20047;-60
2021/12/06 00:35:23;;;;;;;24.23;16.92;;;14.00;61.00;;;;;;4208592;28;20138;-60
2021/12/06 00:37:54;;;;;;;24.88;17.77;;;14.00;60.50;;;;;;4206486;28;20056;-60
2021/12/06 00:40:16;;;;;;;26.30;19.05;;;14.00;60.70;;;;;;4209647;28;20052;-60
2021/12/06 00:42:38;;;;;;;25.83;18.95;;;14.00;60.80;;;;;;4224349;28;20051;-60
2021/12/06 00:45:01;;;;;;;25.30;17.63;;;13.90;59.60;;;;;;4223716;28;20044;-60
2021/12/06 00:47:23;;;;;;;25.50;17.55;;;13.90;61.20;;;;;;4225783;28;20039;-60
2021/12/06 00:49:47;;;;;;;27.00;19.33;;;13.90;62.40;;;;;;4224509;28;20047;-60
2021/12/06 00:52:09;;;;;;;22.05;16.80;;;13.90;60.70;;;;;;4208389;28;20117;-60
2021/12/06 00:54:35;;;;;;;24.70;17.63;;;13.90;62.40;;;;;;4208605;28;20147;-60
2021/12/06 00:56:58;;;;;;;26.73;18.73;;;13.90;63.50;;;;;;4213306;28;20131;-60
2021/12/06 00:59:20;;;;;;;28.15;18.92;;;13.90;62.20;;;;;;4223688;28;20482;-59
2021/12/06 01:01:42;;;;;;;26.48;18.52;;;13.90;62.30;;;;;;4209921;28;20044;-60
2021/12/06 01:04:05;;;;;;;27.75;19.92;;;13.90;62.10;;;;;;4208342;28;20052;-60
2021/12/06 01:06:29;;;;;;;25.40;18.40;;;13.90;60.60;;;;;;4206885;28;20138;-60
2021/12/06 01:08:51;;;;;;;26.88;18.25;;;13.90;60.40;;;;;;4208818;28;20051;-60
2021/12/06 01:11:14;;;;;;;26.35;18.15;;;13.90;62.10;;;;;;4219451;28;20402;-60
2021/12/06 01:13:36;;;;;;;27.02;18.42;;;13.90;63.10;;;;;;4217570;28;20044;-60
2021/12/06 01:15:59;;;;;;;25.83;18.83;;;13.80;61.80;;;;;;4208733;28;20052;-60
2021/12/06 01:18:21;;;;;;;28.25;20.10;;;13.80;60.10;;;;;;4208703;28;20068;-60
2021/12/06 01:20:51;;;;;;;29.60;20.25;;;13.80;60.30;;;;;;4216367;28;20055;-60
2021/12/06 01:23:17;;;;;;;29.77;19.20;;;13.80;59.80;;;;;;4223749;28;20040;-60
2021/12/06 01:25:48;;;;;;;30.67;20.40;;;13.80;61.30;;;;;;4225394;28;20109;-60
2021/12/06 01:30:57;;;;;;;27.58;18.30;;;13.80;59.40;;;;;;4215242;28;20382;-60
2021/12/06 01:34:03;;;;;;;29.73;20.27;;;13.80;61.50;;;;;;4223506;28;20055;-60
2021/12/06 01:39:15;;;;;;;30.52;19.80;;;13.70;61.20;;;;;;4200117;27;20135;-60
2021/12/06 01:41:42;;;;;;;31.88;22.63;;;13.70;62.10;;;;;;4204103;27;20139;-60
2021/12/06 01:44:07;;;;;;;28.38;19.27;;;13.70;62.10;;;;;;4191634;28;20072;-60
2021/12/06 01:46:33;;;;;;;30.38;20.60;;;13.70;62.10;;;;;;4197455;27;20051;-60
2021/12/06 01:48:55;;;;;;;29.65;19.17;;;13.70;61.80;;;;;;4206862;27;20052;-60
2021/12/06 01:51:17;;;;;;;32.35;20.67;;;13.70;61.70;;;;;;4206838;27;20123;-60
2021/12/06 01:53:39;;;;;;;29.52;19.20;;;13.70;62.50;;;;;;4207039;27;20036;-60
2021/12/06 01:56:02;;;;;;;31.50;20.67;;;13.60;63.80;;;;;;4189402;28;20943;-61
2021/12/06 01:58:25;;;;;;;32.08;19.98;;;13.60;62.90;;;;;;4190155;28;20079;-61
2021/12/06 02:00:51;;;;;;;28.63;19.33;;;13.60;64.40;;;;;;4208319;28;20044;-60
2021/12/06 02:03:21;;;;;;;29.65;18.90;;;13.60;66.00;;;;;;4210780;28;20184;-60
2021/12/06 02:05:45;;;;;;;30.48;19.88;;;13.70;67.90;;;;;;4209716;28;20139;-60
2021/12/06 02:08:10;;;;;;;31.38;20.42;;;13.70;68.40;;;;;;4209991;28;20048;-60
2021/12/06 02:10:33;;;;;;;29.80;19.92;;;13.70;69.30;;;;;;4211004;28;20047;-60
2021/12/06 02:13:00;;;;;;;30.33;19.92;;;13.70;69.30;;;;;;4209768;28;20476;-60
2021/12/06 02:15:36;;;;;;;31.17;18.02;;;13.70;68.00;;;;;;4209618;28;20071;-61
2021/12/06 02:18:05;;;;;;;31.23;20.58;;;13.70;68.50;;;;;;4209686;28;20127;-60
2021/12/06 02:20:29;;;;;;;29.38;19.35;;;13.70;69.70;;;;;;4208943;28;20040;-61
2021/12/06 02:22:54;;;;;;;30.10;19.02;;;13.70;69.70;;;;;;4210768;28;20048;-61
2021/12/06 02:25:18;;;;;;;27.55;18.73;;;13.70;69.30;;;;;;4211026;28;20075;-60
2021/12/06 02:27:43;;;;;;;28.02;18.20;;;13.70;71.00;;;;;;4211634;28;20131;-60
2021/12/06 02:30:08;;;;;;;32.70;20.00;;;13.80;72.20;;;;;;4209334;28;20060;-61
2021/12/06 02:32:30;;;;;;;31.30;19.65;;;13.90;72.90;;;;;;4209137;28;20048;-60
2021/12/06 02:34:54;;;;;;;28.52;18.83;;;14.00;73.40;;;;;;4210832;28;20060;-60
2021/12/06 02:37:19;;;;;;;28.70;18.92;;;14.20;73.30;;;;;;4219572;28;20101;-60
2021/12/06 02:39:43;;;;;;;31.25;20.67;;;14.20;72.90;;;;;;4210322;28;20048;-61
2021/12/06 02:42:08;;;;;;;30.67;19.90;;;14.30;72.80;;;;;;4209274;28;20052;-60
2021/12/06 02:44:31;;;;;;;30.30;18.92;;;14.30;72.00;;;;;;4209177;28;20429;-60
2021/12/06 02:46:53;;;;;;;30.10;19.08;;;14.40;71.10;;;;;;4210572;28;20388;-60
2021/12/06 02:49:16;;;;;;;30.77;19.15;;;14.30;71.00;;;;;;4209370;28;20529;-61
2021/12/06 02:51:39;;;;;;;34.85;21.45;;;14.30;70.80;;;;;;4209389;28;20406;-61
2021/12/06 02:54:01;;;;;;;31.27;19.98;;;14.30;70.90;;;;;;4209125;28;20589;-60
2021/12/06 02:56:33;;;;;;;32.30;19.83;;;14.20;71.60;;;;;;4209022;28;20060;-61
2021/12/06 02:58:56;;;;;;;32.45;19.15;;;14.20;70.80;;;;;;4208345;28;20040;-61
2021/12/06 03:01:26;;;;;;;31.45;20.33;;;14.10;71.50;;;;;;4209701;28;20136;-60
2021/12/06 03:03:48;;;;;;;33.05;21.17;;;14.10;71.20;;;;;;4208905;28;20549;-61
2021/12/06 03:06:13;;;;;;;33.35;19.00;;;14.10;71.40;;;;;;4209067;28;20093;-61
2021/12/06 03:08:38;;;;;;;32.25;19.65;;;14.00;71.70;;;;;;4208832;28;20056;-60
2021/12/06 03:11:00;;;;;;;33.83;19.80;;;14.00;72.00;;;;;;4209700;28;20060;-60
2021/12/06 03:13:23;;;;;;;35.95;20.20;;;14.00;72.20;;;;;;4217356;27;20048;-60
2021/12/06 03:15:46;;;;;;;35.55;20.67;;;14.00;73.90;;;;;;4226899;27;20053;-61
2021/12/06 03:18:08;;;;;;;33.75;20.42;;;14.00;75.00;;;;;;4226865;27;20169;-60
2021/12/06 03:20:30;;;;;;;31.65;17.98;;;14.20;75.00;;;;;;4225445;28;20050;-60
2021/12/06 03:22:52;;;;;;;32.55;20.05;;;14.30;74.70;;;;;;4226782;27;20050;-60
2021/12/06 03:25:17;;;;;;;33.92;19.70;;;14.40;75.00;;;;;;4216540;28;20063;-60
2021/12/06 03:27:40;;;;;;;35.30;20.92;;;14.60;73.50;;;;;;4208645;28;20518;-62
2021/12/06 03:30:04;;;;;;;31.95;19.70;;;14.60;73.10;;;;;;4208330;28;20058;-61
2021/12/06 03:32:26;;;;;;;32.38;18.98;;;14.60;72.90;;;;;;4208198;28;20074;-64
2021/12/06 03:34:48;;;;;;;34.25;20.60;;;14.70;73.00;;;;;;4212663;28;20044;-63
2021/12/06 03:37:11;;;;;;;34.10;20.60;;;14.70;72.60;;;;;;4225257;28;20055;-61
2021/12/06 03:39:37;;;;;;;35.92;21.73;;;14.70;72.40;;;;;;4225237;28;20051;-61
2021/12/06 03:42:03;;;;;;;33.17;20.88;;;14.70;72.30;;;;;;4224700;28;20510;-61
2021/12/06 03:44:26;;;;;;;36.58;22.10;;;14.60;72.10;;;;;;4207953;28;20056;-60
2021/12/06 03:46:51;;;;;;;33.20;20.88;;;14.60;71.70;;;;;;4214005;28;20575;-61
2021/12/06 03:49:15;;;;;;;35.15;21.23;;;14.60;72.00;;;;;;4226259;27;20127;-60
2021/12/06 03:51:38;;;;;;;37.70;21.27;;;14.60;72.50;;;;;;4214203;28;20055;-61
2021/12/06 03:54:00;;;;;;;37.08;21.83;;;14.60;73.10;;;;;;4209538;28;20493;-61
2021/12/06 03:56:22;;;;;;;36.25;21.67;;;14.70;73.60;;;;;;4207643;28;20048;-60
2021/12/06 03:58:47;;;;;;;32.97;20.10;;;14.80;73.50;;;;;;4212508;28;20054;-61
2021/12/06 04:01:10;;;;;;;36.25;21.33;;;14.90;72.90;;;;;;4208194;28;20557;-60
2021/12/06 04:03:36;;;;;;;37.53;21.33;;;15.00;72.40;;;;;;4208089;28;20044;-61
2021/12/06 04:05:59;;;;;;;33.47;20.73;;;15.10;71.70;;;;;;4207847;28;20047;-61
2021/12/06 04:08:25;;;;;;;31.45;20.08;;;15.20;71.60;;;;;;4224685;27;20051;-61
2021/12/06 04:10:48;;;;;;;33.80;20.38;;;15.20;72.10;;;;;;4224406;28;20044;-61
2021/12/06 04:13:12;;;;;;;37.80;22.40;;;15.20;71.00;;;;;;4224110;27;20130;-61
2021/12/06 04:15:36;;;;;;;33.75;20.90;;;15.20;71.10;;;;;;4223978;28;20047;-60
2021/12/06 04:17:58;;;;;;;36.10;21.92;;;15.20;71.20;;;;;;4213310;28;20134;-60
2021/12/06 04:20:22;;;;;;;33.25;20.58;;;15.20;71.10;;;;;;4207875;28;20047;-61
2021/12/06 04:22:46;;;;;;;34.17;20.23;;;15.20;71.60;;;;;;4208801;28;20054;-61
2021/12/06 04:25:12;;;;;;;34.97;20.75;;;15.20;71.10;;;;;;4206896;28;20051;-61
2021/12/06 04:27:36;;;;;;;33.83;20.05;;;15.30;71.10;;;;;;4207686;28;20131;-61
2021/12/06 04:29:58;;;;;;;36.47;21.38;;;15.20;70.90;;;;;;4217344;28;20047;-61
2021/12/06 04:32:21;;;;;;;38.65;22.38;;;15.30;71.10;;;;;;4218093;28;20505;-60
2021/12/06 04:34:43;;;;;;;32.33;20.98;;;15.20;70.90;;;;;;4207127;28;20486;-60
2021/12/06 04:37:07;;;;;;;36.08;19.75;;;15.20;70.70;;;;;;4208546;28;20497;-60
2021/12/06 04:39:29;;;;;;;32.95;21.58;;;15.20;70.70;;;;;;4207602;28;20048;-61
2021/12/06 04:41:52;;;;;;;31.98;19.65;;;15.20;70.60;;;;;;4207059;28;20048;-60
2021/12/06 04:44:16;;;;;;;34.53;21.00;;;15.20;71.60;;;;;;4206755;28;20456;-60
2021/12/06 04:46:39;;;;;;;31.33;19.65;;;15.20;71.80;;;;;;4208735;28;20083;-60
2021/12/06 04:49:02;;;;;;;37.55;21.42;;;15.30;71.10;;;;;;4206967;28;20113;-61
2021/12/06 04:51:26;;;;;;;32.65;20.17;;;15.30;71.30;;;;;;4207093;28;20101;-61
2021/12/06 04:53:50;;;;;;;34.03;21.60;;;15.40;71.00;;;;;;4207022;28;20051;-61
2021/12/06 04:56:18;;;;;;;34.60;20.92;;;15.40;70.50;;;;;;4207524;28;20148;-60
2021/12/06 04:58:45;;;;;;;35.15;21.42;;;15.50;70.30;;;;;;4207076;28;20518;-60
2021/12/06 05:01:11;;;;;;;34.63;22.05;;;15.60;70.10;;;;;;4210068;28;20101;-60
2021/12/06 05:03:34;;;;;;;34.00;19.98;;;15.60;70.10;;;;;;4209013;28;20048;-60
2021/12/06 05:06:03;;;;;;;37.35;21.67;;;15.50;70.10;;;;;;4207097;28;20046;-60
2021/12/06 05:08:27;;;;;;;35.63;20.15;;;15.60;69.90;;;;;;4208656;28;20044;-61
2021/12/06 05:10:52;;;;;;;35.35;21.05;;;15.60;69.90;;;;;;4208867;28;20056;-61
2021/12/06 05:13:15;;;;;;;30.92;18.58;;;15.60;69.80;;;;;;4207415;28;20125;-60
2021/12/06 05:15:38;;;;;;;32.50;20.55;;;15.50;70.00;;;;;;4207077;28;20048;-60
2021/12/06 05:18:00;;;;;;;30.90;19.25;;;15.50;70.00;;;;;;4208297;28;20044;-60
2021/12/06 05:20:22;;;;;;;29.13;18.45;;;15.50;70.30;;;;;;4220743;28;20047;-60
2021/12/06 05:22:45;;;;;;;32.25;19.15;;;15.40;70.30;;;;;;4224797;28;20059;-60
2021/12/06 05:25:08;;;;;;;32.28;19.83;;;15.30;70.60;;;;;;4225298;28;20044;-60
2021/12/06 05:27:32;;;;;;;34.70;20.27;;;15.30;70.60;;;;;;4224102;28;20498;-61
2021/12/06 05:29:58;;;;;;;31.75;19.95;;;15.30;70.70;;;;;;4223702;28;20082;-60
2021/12/06 05:32:21;;;;;;;33.80;20.92;;;15.20;71.20;;;;;;4211243;28;20074;-60
2021/12/06 05:34:44;;;;;;;33.78;20.40;;;15.20;71.20;;;;;;4206863;28;20044;-60
2021/12/06 05:37:08;;;;;;;33.42;20.33;;;15.20;71.40;;;;;;4210193;28;20066;-61
2021/12/06 05:39:31;;;;;;;32.63;19.58;;;15.30;72.10;;;;;;4215870;28;22130;-60
2021/12/06 05:41:53;;;;;;;34.03;20.02;;;15.30;71.20;;;;;;4211684;28;20036;-60
2021/12/06 05:44:16;;;;;;;32.67;21.17;;;15.30;71.00;;;;;;4211434;28;20052;-60
2021/12/06 05:46:39;;;;;;;32.75;20.45;;;15.30;70.90;;;;;;4211363;28;20048;-60
2021/12/06 05:49:01;;;;;;;36.33;21.45;;;15.30;70.90;;;;;;4213536;28;20043;-60
2021/12/06 05:51:23;;;;;;;32.90;19.90;;;15.30;71.00;;;;;;4228086;28;20441;-61
2021/12/06 05:53:45;;;;;;;34.22;19.80;;;15.30;71.10;;;;;;4226714;27;20043;-61
2021/12/06 05:56:08;;;;;;;34.80;19.90;;;15.30;71.00;;;;;;4215343;28;20047;-61
2021/12/06 05:58:31;;;;;;;34.00;19.77;;;15.30;70.90;;;;;;4211262;28;20048;-61
2021/12/06 06:00:57;;;;;;;33.03;20.25;;;15.30;70.90;;;;;;4215944;28;20048;-61
2021/12/06 06:03:19;;;;;;;30.77;18.85;;;15.40;70.70;;;;;;4226649;28;20053;-61
2021/12/06 06:05:41;;;;;;;34.33;20.77;;;15.40;70.90;;;;;;4228263;27;20124;-61
2021/12/06 06:08:04;;;;;;;34.00;20.42;;;15.40;70.70;;;;;;4228022;28;20051;-61
2021/12/06 06:10:27;;;;;;;36.30;19.83;;;15.40;70.60;;;;;;4210743;28;20051;-61
2021/12/06 06:12:49;;;;;;;33.17;19.27;;;15.40;70.60;;;;;;4212102;28;20048;-61
2021/12/06 06:15:11;;;;;;;36.28;20.40;;;15.40;70.30;;;;;;4210897;28;20460;-61
2021/12/06 06:17:41;;;;;;;32.38;18.65;;;15.40;70.60;;;;;;4210856;28;20036;-62
2021/12/06 06:20:03;;;;;;;36.00;20.45;;;15.40;70.70;;;;;;4223045;27;20116;-61
2021/12/06 06:22:26;;;;;;;30.85;19.15;;;15.40;70.80;;;;;;4227696;27;20078;-61
2021/12/06 06:24:48;;;;;;;35.00;19.38;;;15.30;70.80;;;;;;4227543;27;20456;-61
2021/12/06 06:27:10;;;;;;;35.55;20.83;;;15.30;71.10;;;;;;4227785;27;20039;-62
2021/12/06 06:29:32;;;;;;;34.97;20.40;;;15.30;71.30;;;;;;4237201;27;20071;-63
2021/12/06 06:31:55;;;;;;;32.15;19.27;;;15.40;71.40;;;;;;4244545;27;20039;-61
2021/12/06 06:34:18;;;;;;;32.33;19.75;;;15.50;71.00;;;;;;4244497;27;20058;-61
2021/12/06 06:36:40;;;;;;;33.90;20.55;;;15.50;70.40;;;;;;4244435;27;20059;-61
2021/12/06 06:39:03;;;;;;;36.70;21.17;;;15.60;70.10;;;;;;4230495;27;20055;-60
2021/12/06 06:41:26;;;;;;;36.38;21.13;;;15.60;69.80;;;;;;4210597;28;20078;-61
2021/12/06 06:43:49;;;;;;;37.80;21.58;;;15.60;69.80;;;;;;4210374;28;20047;-60
2021/12/06 06:46:11;;;;;;;35.28;20.83;;;15.60;69.60;;;;;;4219507;27;20048;-60
2021/12/06 06:48:33;;;;;;;33.78;20.55;;;15.60;69.60;;;;;;4221118;27;20101;-60
2021/12/06 06:50:56;;;;;;;33.53;19.90;;;15.60;70.00;;;;;;4210487;28;20422;-60
2021/12/06 06:53:19;;;;;;;31.75;20.33;;;15.60;70.10;;;;;;4210636;28;20048;-60
2021/12/06 06:55:41;;;;;;;32.75;19.20;;;15.60;70.10;;;;;;4210489;28;20472;-61
2021/12/06 06:58:03;;;;;;;32.53;19.33;;;15.60;69.80;;;;;;4210352;28;20048;-60
2021/12/06 07:00:28;;;;;;;30.58;19.27;;;15.70;69.40;;;;;;4209074;28;20431;-61
2021/12/06 07:02:50;;;;;;;30.15;18.60;;;15.60;69.20;;;;;;4220573;27;20461;-60
2021/12/06 07:05:13;;;;;;;29.25;18.95;;;15.60;69.50;;;;;;4227017;27;20055;-60
2021/12/06 07:07:37;;;;;;;32.42;20.77;;;15.60;69.40;;;;;;4226689;27;20056;-59
2021/12/06 07:09:59;;;;;;;31.20;19.00;;;15.50;69.10;;;;;;4210028;28;20134;-59
2021/12/06 07:12:21;;;;;;;31.17;19.52;;;15.50;69.80;;;;;;4209624;28;20052;-59
2021/12/06 07:14:45;;;;;;;32.50;19.80;;;15.50;70.60;;;;;;4209790;28;20047;-60
2021/12/06 07:17:07;;;;;;;35.20;20.23;;;15.60;70.50;;;;;;4209635;28;20449;-60
2021/12/06 07:19:29;;;;;;;33.38;21.33;;;15.70;70.30;;;;;;4226503;27;20043;-60
2021/12/06 07:21:51;;;;;;;34.30;20.55;;;15.80;69.70;;;;;;4226993;27;20035;-60
2021/12/06 07:24:15;;;;;;;33.22;20.38;;;15.80;69.40;;;;;;4217136;27;20044;-60
2021/12/06 07:26:38;;;;;;;35.97;22.05;;;15.80;69.20;;;;;;4223549;27;20108;-60
2021/12/06 07:29:01;;;;;;;31.85;19.55;;;15.80;69.20;;;;;;4209888;28;20040;-61
2021/12/06 07:31:23;;;;;;;36.08;21.77;;;15.80;69.30;;;;;;4214260;27;20052;-60
2021/12/06 07:33:48;;;;;;;31.67;19.75;;;15.80;69.20;;;;;;4226716;27;20055;-60
2021/12/06 07:36:12;;;;;;;32.25;19.92;;;15.80;68.70;;;;;;4227252;27;20056;-60
2021/12/06 07:38:37;;;;;;;30.55;18.65;;;15.70;69.00;;;;;;4225894;27;20444;-60
2021/12/06 07:41:00;;;;;;;31.63;18.98;;;15.60;69.20;;;;;;4226476;28;20139;-60
2021/12/06 07:43:23;;;;;;;32.75;20.10;;;15.50;69.40;;;;;;4225580;27;20075;-59
2021/12/06 07:45:46;;;;;;;37.30;21.85;;;15.50;69.60;;;;;;4226712;27;20055;-60
2021/12/06 07:48:08;;;;;;;32.05;20.40;;;15.50;70.20;;;;;;4226408;27;20043;-60
2021/12/06 07:50:30;;;;;;;37.33;21.90;;;15.40;69.60;;;;;;4226462;27;20142;-60
2021/12/06 07:52:54;;;;;;;37.47;21.95;;;15.40;70.20;;;;;;4226319;27;20055;-60
2021/12/06 07:55:18;;;;;;;35.70;21.38;;;15.40;69.70;;;;;;4211051;27;20052;-64
2021/12/06 07:57:42;;;;;;;33.38;20.55;;;15.40;70.70;;;;;;4222248;28;20048;-60
2021/12/06 08:00:08;;;;;;;37.00;22.35;;;15.40;70.90;;;;;;4210955;28;20048;-60
2021/12/06 08:02:31;;;;;;;36.53;21.60;;;15.40;71.20;;;;;;4214212;27;20127;-61
2021/12/06 08:05:04;;;;;;;35.45;21.60;;;15.50;71.10;;;;;;4214912;28;20050;-60
2021/12/06 08:07:26;;;;;;;40.72;22.55;;;15.60;70.70;;;;;;4207127;28;20048;-60
2021/12/06 08:09:49;;;;;;;37.95;22.45;;;15.70;70.30;;;;;;4207145;28;20491;-60
2021/12/06 08:12:11;;;;;;;37.72;21.27;;;15.70;69.80;;;;;;4206997;28;20521;-60
2021/12/06 08:14:35;;;;;;;38.25;22.45;;;15.70;69.70;;;;;;4222766;27;20050;-61
2021/12/06 08:16:58;;;;;;;37.00;22.88;;;15.70;69.90;;;;;;4215940;28;20040;-61
2021/12/06 08:19:20;;;;;;;40.22;22.13;;;15.70;69.90;;;;;;4211151;28;20043;-60
2021/12/06 08:21:42;;;;;;;37.03;21.45;;;15.70;69.70;;;;;;4219158;27;20055;-61
2021/12/06 08:24:06;;;;;;;36.17;21.55;;;15.70;69.60;;;;;;4213424;28;20054;-60
2021/12/06 08:26:31;;;;;;;39.55;23.05;;;15.70;69.50;;;;;;4207935;28;20124;-60
2021/12/06 08:28:54;;;;;;;37.75;21.85;;;15.70;69.40;;;;;;4206948;28;20052;-61
2021/12/06 08:31:19;;;;;;;36.60;20.90;;;15.60;69.30;;;;;;4207214;28;20125;-61
2021/12/06 08:33:42;;;;;;;41.08;23.27;;;15.60;69.20;;;;;;4207082;27;20616;-60
2021/12/06 08:36:05;;;;;;;39.55;21.70;;;15.60;69.40;;;;;;4206663;28;20101;-60
2021/12/06 08:38:30;;;;;;;42.05;23.50;;;15.50;69.80;;;;;;4207423;28;20059;-60
2021/12/06 08:40:53;;;;;;;40.00;22.02;;;15.40;70.20;;;;;;4217238;27;20135;-60
2021/12/06 08:43:19;;;;;;;41.00;23.52;;;15.40;70.40;;;;;;4206561;28;20056;-60
2021/12/06 08:45:41;;;;;;;36.80;20.67;;;15.30;70.40;;;;;;4206970;28;20048;-60
2021/12/06 08:48:05;;;;;;;36.10;21.27;;;15.30;70.60;;;;;;4206158;27;20055;-60
2021/12/06 08:50:30;;;;;;;39.45;22.52;;;15.20;70.80;;;;;;4210902;28;20060;-60
2021/12/06 08:52:54;;;;;;;37.83;20.20;;;15.20;71.10;;;;;;4208430;28;21566;-60
2021/12/06 08:55:17;;;;;;;34.90;19.75;;;15.30;71.40;;;;;;4208167;28;20113;-60
2021/12/06 08:57:40;;;;;;;37.55;20.88;;;15.30;71.10;;;;;;4222848;28;20151;-60
2021/12/06 09:00:02;;;;;;;33.83;19.73;;;15.40;70.80;;;;;;4211078;28;20052;-60
2021/12/06 09:02:24;;;;;;;34.40;19.88;;;15.40;70.80;;;;;;4208913;28;20134;-60
2021/12/06 09:05:09;;;;;;;34.42;20.05;;;15.40;70.90;;;;;;4213167;28;20192;-60
2021/12/06 09:07:32;;;;;;;36.10;20.15;;;15.50;70.80;;;;;;4218522;28;20127;-60
2021/12/06 09:09:56;;;;;;;38.80;20.85;;;15.50;70.60;;;;;;4219939;28;20683;-60
2021/12/06 09:12:20;;;;;;;34.97;19.85;;;15.50;70.10;;;;;;4226234;27;20109;-60
2021/12/06 09:14:43;;;;;;;35.15;19.75;;;15.60;70.10;;;;;;4220163;27;20052;-61
2021/12/06 09:17:05;;;;;;;33.35;19.13;;;15.50;70.20;;;;;;4209808;27;20056;-60
2021/12/06 09:19:28;;;;;;;35.10;20.30;;;15.60;70.30;;;;;;4209638;28;20058;-60
2021/12/06 09:21:51;;;;;;;38.45;20.40;;;15.60;70.30;;;;;;4223460;27;20051;-59
2021/12/06 09:24:18;;;;;;;36.60;20.67;;;15.60;70.00;;;;;;4221808;28;20052;-60
2021/12/06 09:26:40;;;;;;;40.53;22.35;;;15.60;69.90;;;;;;4216295;27;20055;-60
2021/12/06 09:29:03;;;;;;;33.88;20.05;;;15.60;70.00;;;;;;4209733;28;25011;-61
2021/12/06 09:31:26;;;;;;;32.58;19.55;;;15.60;70.10;;;;;;4209970;28;20044;-61
2021/12/06 09:33:48;;;;;;;35.28;19.98;;;15.60;70.10;;;;;;4210935;28;20051;-60
2021/12/06 09:36:12;;;;;;;35.28;19.10;;;15.60;70.10;;;;;;4209902;28;20054;-61
2021/12/06 09:38:38;;;;;;;36.47;20.60;;;15.60;70.00;;;;;;4209906;28;20118;-60
2021/12/06 09:41:01;;;;;;;32.65;20.10;;;15.60;69.70;;;;;;4210203;28;20080;-61
2021/12/06 09:43:24;;;;;;;31.30;19.52;;;15.60;70.00;;;;;;4209587;28;20048;-61
2021/12/06 09:45:48;;;;;;;34.15;19.13;;;15.70;70.20;;;;;;4216456;28;20047;-61
2021/12/06 09:48:14;;;;;;;30.05;19.83;;;15.80;69.70;;;;;;4213828;28;20056;-60
2021/12/06 09:50:42;;;;;;;31.45;18.20;;;15.90;69.30;;;;;;4214725;28;20105;-60
2021/12/06 09:53:08;;;;;;;31.17;17.58;;;15.90;68.90;;;;;;4219032;28;20048;-60
2021/12/06 09:55:33;;;;;;;31.00;18.15;;;15.90;68.70;;;;;;4217905;28;20134;-60
2021/12/06 09:57:55;;;;;;;30.35;18.00;;;15.90;68.70;;;;;;4217319;27;20044;-61
2021/12/06 10:00:22;;;;;;;30.05;17.77;;;15.90;68.90;;;;;;4219384;28;20054;-60
2021/12/06 10:02:44;;;;;;;29.17;17.58;;;15.80;68.90;;;;;;4217563;28;20043;-60
2021/12/06 10:05:07;;;;;;;28.77;16.63;;;15.80;69.10;;;;;;4209544;28;20131;-60
2021/12/06 10:07:29;;;;;;;27.23;16.20;;;15.70;69.00;;;;;;4225040;27;20047;-61
2021/12/06 10:09:53;;;;;;;25.80;16.48;;;15.70;69.10;;;;;;4224036;27;20527;-60
2021/12/06 10:12:17;;;;;;;28.10;17.77;;;15.60;69.00;;;;;;4208944;28;20059;-60
2021/12/06 10:14:42;;;;;;;30.38;17.15;;;15.60;69.60;;;;;;4219475;27;20048;-60
2021/12/06 10:17:05;;;;;;;26.25;16.33;;;15.50;69.90;;;;;;4224794;28;20531;-60
2021/12/06 10:19:27;;;;;;;26.83;15.85;;;15.40;70.10;;;;;;4224734;27;20570;-60
2021/12/06 10:21:49;;;;;;;27.23;17.70;;;15.40;70.70;;;;;;4207948;28;20055;-60
2021/12/06 10:24:15;;;;;;;31.20;17.23;;;15.40;71.10;;;;;;4208977;28;20044;-60
2021/12/06 10:26:37;;;;;;;29.55;16.17;;;15.40;71.00;;;;;;4208429;28;20514;-60
2021/12/06 10:29:04;;;;;;;28.63;16.92;;;15.40;71.00;;;;;;4217234;27;20055;-60
2021/12/06 10:31:27;;;;;;;26.63;16.00;;;15.40;71.00;;;;;;4209998;28;20198;-60
2021/12/06 10:33:49;;;;;;;29.20;16.13;;;15.50;71.10;;;;;;4212422;28;20138;-60
2021/12/06 10:36:15;;;;;;;28.30;16.00;;;15.50;70.90;;;;;;4217083;27;20063;-60
2021/12/06 10:38:40;;;;;;;24.83;15.10;;;15.50;70.60;;;;;;4214369;28;20426;-61
2021/12/06 10:41:04;;;;;;;29.02;16.77;;;15.60;70.60;;;;;;4208552;28;20055;-60
2021/12/06 10:43:26;;;;;;;29.77;17.23;;;15.60;70.40;;;;;;4208514;28;20100;-61
2021/12/06 10:45:51;;;;;;;26.85;16.30;;;15.60;70.30;;;;;;4214638;28;20537;-60
2021/12/06 10:48:15;;;;;;;24.40;15.23;;;15.50;70.30;;;;;;4222842;27;20073;-59
2021/12/06 10:50:41;;;;;;;28.17;16.77;;;15.50;70.60;;;;;;4217695;27;20047;-59
2021/12/06 10:53:05;;;;;;;26.35;15.95;;;15.40;70.60;;;;;;4212147;27;20406;-60
2021/12/06 10:55:30;;;;;;;28.10;15.82;;;15.40;70.70;;;;;;4209407;28;20047;-60
2021/12/06 10:57:55;;;;;;;27.60;16.27;;;15.30;70.70;;;;;;4220631;27;20077;-60
2021/12/06 11:00:37;;;;;;;28.10;15.90;;;15.30;70.70;;;;;;4214405;28;20542;-60
2021/12/06 11:03:01;;;;;;;30.23;16.70;;;15.20;71.00;;;;;;4211311;28;20503;-60
2021/12/06 11:05:26;;;;;;;28.40;16.38;;;15.20;71.60;;;;;;4215223;28;20048;-60
2021/12/06 11:07:48;;;;;;;27.45;16.70;;;15.20;71.70;;;;;;4210435;27;20722;-60
2021/12/06 11:10:11;;;;;;;28.55;16.10;;;15.10;71.90;;;;;;4217635;28;20036;-60
2021/12/06 11:12:35;;;;;;;30.00;17.30;;;15.10;72.10;;;;;;4217434;28;20059;-60
2021/12/06 11:14:58;;;;;;;31.25;16.35;;;15.10;72.90;;;;;;4223008;27;20124;-61
2021/12/06 11:17:21;;;;;;;29.65;17.90;;;15.10;73.40;;;;;;4226353;27;20499;-60
2021/12/06 11:19:46;;;;;;;29.05;17.58;;;15.20;73.30;;;;;;4220509;27;20051;-60
2021/12/06 11:22:10;;;;;;;31.63;19.15;;;15.20;73.30;;;;;;4209834;28;20043;-61
2021/12/06 11:24:39;;;;;;;36.20;18.90;;;15.20;73.60;;;;;;4210164;28;20132;-61
2021/12/06 11:27:04;;;;;;;31.33;17.65;;;15.30;73.10;;;;;;4210575;27;20048;-61
2021/12/06 11:29:29;;;;;;;29.65;16.77;;;15.30;72.40;;;;;;4209919;28;20048;-61
2021/12/06 11:31:59;;;;;;;26.15;15.98;;;15.50;72.10;;;;;;4219625;28;20043;-60
2021/12/06 11:34:21;;;;;;;27.90;16.67;;;15.50;71.50;;;;;;4226089;28;20047;-61
2021/12/06 11:36:47;;;;;;;29.55;16.73;;;15.50;71.50;;;;;;4219560;27;20054;-61
2021/12/06 11:39:13;;;;;;;24.70;15.75;;;15.50;71.20;;;;;;4209963;28;20039;-60
2021/12/06 11:41:35;;;;;;;27.95;17.45;;;15.50;71.00;;;;;;4208705;28;20044;-61
2021/12/06 11:43:58;;;;;;;30.45;19.30;;;15.40;71.30;;;;;;4222461;27;20052;-60
2021/12/06 11:46:30;;;;;;;28.42;19.38;;;15.40;71.30;;;;;;4226340;27;20039;-61
2021/12/06 11:48:52;;;;;;;29.17;19.05;;;15.30;71.00;;;;;;4209341;28;20894;-60
2021/12/06 11:51:16;;;;;;;33.45;20.83;;;15.30;71.40;;;;;;4209472;28;20491;-60
2021/12/06 11:53:44;;;;;;;35.67;22.02;;;15.30;71.40;;;;;;4214465;28;20047;-60
2021/12/06 11:56:10;;;;;;;37.28;23.42;;;15.30;72.30;;;;;;4226410;27;20558;-61
2021/12/06 11:58:36;;;;;;;37.65;22.45;;;15.20;71.70;;;;;;4209082;28;20044;-61
2021/12/06 12:01:10;;;;;;;34.83;22.80;;;15.20;72.10;;;;;;4209435;28;20056;-60
2021/12/06 12:03:34;;;;;;;35.65;20.95;;;15.30;71.50;;;;;;4209367;28;20054;-60
2021/12/06 12:05:56;;;;;;;35.72;18.77;;;15.40;71.70;;;;;;4215966;27;20487;-60
2021/12/06 12:08:19;;;;;;;27.70;16.58;;;15.40;71.50;;;;;;4226052;27;20039;-62
2021/12/06 12:10:49;;;;;;;25.13;16.27;;;15.50;71.60;;;;;;4217628;27;20056;-62
2021/12/06 12:13:13;;;;;;;26.40;14.88;;;15.60;71.20;;;;;;4208538;28;20044;-62
2021/12/06 12:15:36;;;;;;;22.17;15.38;;;15.70;70.70;;;;;;4214134;27;20055;-62
2021/12/06 12:17:59;;;;;;;24.13;15.23;;;15.90;69.90;;;;;;4223948;27;20175;-62